createdAt,value
2018-01-31T01:52:39.338Z,7.13
2018-01-31T01:53:39.233Z,7.17
2018-01-31T01:54:40.086Z,7.16
2018-01-31T01:55:38.904Z,7.16
2018-01-31T01:56:39.692Z,7.17
2018-01-31T01:57:39.205Z,7.18
2018-01-31T01:58:39.538Z,7.17
2018-01-31T01:59:39.690Z,7.15
2018-01-31T02:00:39.888Z,7.19
2018-01-31T02:01:39.033Z,7.17
2018-01-31T02:02:39.601Z,7.2
2018-01-31T02:03:38.982Z,7.16
2018-01-31T02:04:38.976Z,7.21
2018-01-31T02:05:39.029Z,7.19
2018-01-31T02:06:39.494Z,7.2
2018-01-31T02:07:39.042Z,7.18
2018-01-31T02:08:40.184Z,7.15
2018-01-31T02:09:41.922Z,7.18
2018-01-31T02:10:39.222Z,7.17
2018-01-31T02:11:38.895Z,7.18
2018-01-31T02:12:38.769Z,7.18
2018-01-31T02:13:39.001Z,7.21
2018-01-31T02:14:40.059Z,7.21
2018-01-31T02:15:38.966Z,7.2
2018-01-31T02:16:38.963Z,7.16
2018-01-31T02:17:39.913Z,7.19
2018-01-31T02:18:41.022Z,7.2
2018-01-31T02:19:39.808Z,7.21
2018-01-31T02:20:38.944Z,7.21
2018-01-31T02:21:39.290Z,7.19
2018-01-31T02:22:39.819Z,7.2
2018-01-31T02:23:40.322Z,7.21
2018-01-31T02:24:38.760Z,7.2
2018-01-31T02:25:39.688Z,7.19
2018-01-31T02:26:40.294Z,7.22
2018-01-31T02:27:40.166Z,7.19
2018-01-31T02:28:39.591Z,7.24
2018-01-31T02:29:39.883Z,7.21
2018-01-31T02:30:39.427Z,7.22
2018-01-31T02:31:39.115Z,7.22
2018-01-31T02:32:39.026Z,7.21
2018-01-31T02:33:39.268Z,7.21
2018-01-31T02:34:39.515Z,7.22
2018-01-31T02:35:39.192Z,7.21
2018-01-31T02:36:38.946Z,7.21
2018-01-31T02:37:39.169Z,7.22
2018-01-31T02:38:38.804Z,7.21
2018-01-31T02:39:38.944Z,7.24
2018-01-31T02:40:39.165Z,7.22
2018-01-31T02:41:40.532Z,7.21
2018-01-31T02:42:39.348Z,7.18
2018-01-31T02:43:39.157Z,7.2
2018-01-31T02:44:39.187Z,7.18
2018-01-31T02:45:39.721Z,7.19
2018-01-31T02:46:39.234Z,7.19
2018-01-31T02:47:38.998Z,7.17
2018-01-31T02:48:38.883Z,7.16
2018-01-31T02:49:39.084Z,7.19
2018-01-31T02:50:38.807Z,7.15
2018-01-31T02:51:38.849Z,7.17
2018-01-31T02:52:39.203Z,7.16
2018-01-31T02:53:41.274Z,7.17
2018-01-31T02:54:40.438Z,7.18
2018-01-31T02:55:38.917Z,7.17
2018-01-31T02:56:39.078Z,7.16
2018-01-31T02:57:39.257Z,7.16
2018-01-31T02:58:38.897Z,7.17
2018-01-31T02:59:40.216Z,7.18
2018-01-31T03:00:39.559Z,7.2
2018-01-31T03:01:38.982Z,7.2
2018-01-31T03:02:39.092Z,7.22
2018-01-31T03:03:41.970Z,7.22
2018-01-31T03:04:40.018Z,7.22
2018-01-31T03:05:39.721Z,7.2
2018-01-31T03:06:39.259Z,7.2
2018-01-31T03:07:40.261Z,7.21
2018-01-31T03:08:39.079Z,7.22
2018-01-31T03:09:39.199Z,7.22
2018-01-31T03:10:40.457Z,7.23
2018-01-31T03:11:39.064Z,7.23
2018-01-31T03:12:39.887Z,7.23
2018-01-31T03:13:40.447Z,7.25
2018-01-31T03:14:40.356Z,7.23
2018-01-31T03:15:39.777Z,7.24
2018-01-31T03:16:40.682Z,7.22
2018-01-31T03:17:39.217Z,7.21
2018-01-31T03:18:39.159Z,7.22
2018-01-31T03:19:39.656Z,7.24
2018-01-31T03:20:39.166Z,7.23
2018-01-31T03:21:39.013Z,7.24
2018-01-31T03:22:39.611Z,7.23
2018-01-31T03:23:39.730Z,7.2
2018-01-31T03:24:40.046Z,7.22
2018-01-31T03:25:39.287Z,7.24
2018-01-31T03:26:39.665Z,7.22
2018-01-31T03:27:39.283Z,7.22
2018-01-31T03:28:39.274Z,7.22
2018-01-31T03:29:39.175Z,7.22
2018-01-31T03:30:39.188Z,7.21
2018-01-31T03:31:42.708Z,7.19
2018-01-31T03:32:39.727Z,7.21
2018-01-31T03:33:39.034Z,7.19
2018-01-31T03:34:39.827Z,7.22
2018-01-31T03:35:39.538Z,7.19
2018-01-31T03:36:40.915Z,7.2
2018-01-31T03:37:39.765Z,7.19
2018-01-31T03:38:44.841Z,7.19
2018-01-31T03:39:39.042Z,7.19
2018-01-31T03:40:39.160Z,7.19
2018-01-31T03:41:39.503Z,7.17
2018-01-31T03:42:39.169Z,7.18
2018-01-31T03:43:39.154Z,7.18
2018-01-31T03:44:39.046Z,7.18
2018-01-31T03:45:39.939Z,7.19
2018-01-31T03:46:40.060Z,7.19
2018-01-31T03:47:39.326Z,7.2
2018-01-31T03:48:39.324Z,7.18
2018-01-31T03:49:38.988Z,7.17
2018-01-31T03:50:38.912Z,7.19
2018-01-31T03:51:39.246Z,7.19
2018-01-31T03:52:39.283Z,7.19
2018-01-31T03:53:39.203Z,7.2
2018-01-31T03:54:39.550Z,7.18
2018-01-31T03:55:39.170Z,7.18
2018-01-31T03:56:39.307Z,7.17
2018-01-31T03:57:40.136Z,7.18
2018-01-31T03:58:39.258Z,7.17
2018-01-31T03:59:38.810Z,7.16
2018-01-31T04:00:39.188Z,7.16
2018-01-31T04:01:39.518Z,7.15
2018-01-31T04:02:39.762Z,7.16
2018-01-31T04:03:41.241Z,7.15
2018-01-31T04:04:39.782Z,7.18
2018-01-31T04:05:40.587Z,7.16
2018-01-31T04:06:39.330Z,7.16
2018-01-31T04:07:39.081Z,7.15
2018-01-31T04:08:40.574Z,7.18
2018-01-31T04:09:40.092Z,7.16
2018-01-31T04:10:39.776Z,7.14
2018-01-31T04:11:39.835Z,7.18
2018-01-31T04:12:39.635Z,7.18
2018-01-31T04:13:40.476Z,7.16
2018-01-31T04:14:39.253Z,7.17
2018-01-31T04:15:38.883Z,7.14
2018-01-31T04:16:38.973Z,7.15
2018-01-31T04:17:39.853Z,7.15
2018-01-31T04:18:39.408Z,7.16
2018-01-31T04:19:39.044Z,7.14
2018-01-31T04:20:39.276Z,7.13
2018-01-31T04:21:39.015Z,7.13
2018-01-31T04:22:39.908Z,7.12
2018-01-31T04:23:39.452Z,7.14
2018-01-31T04:24:39.060Z,7.11
2018-01-31T04:25:40.479Z,7.14
2018-01-31T04:26:39.948Z,7.12
2018-01-31T04:27:39.251Z,7.12
2018-01-31T04:28:39.318Z,7.12
2018-01-31T04:29:39.788Z,7.13
2018-01-31T04:30:40.451Z,7.12
2018-01-31T04:31:39.626Z,7.1
2018-01-31T04:32:41.008Z,7.11
2018-01-31T04:33:39.018Z,7.11
2018-01-31T04:34:39.775Z,7.11
2018-01-31T04:35:38.966Z,7.1
2018-01-31T04:36:40.062Z,7.1
2018-01-31T04:37:39.389Z,7.11
2018-01-31T04:38:39.237Z,7.1
2018-01-31T04:39:38.924Z,7.13
2018-01-31T04:40:39.284Z,7.09
2018-01-31T04:41:39.002Z,7.11
2018-01-31T04:42:39.255Z,7.11
2018-01-31T04:43:39.939Z,7.12
2018-01-31T04:44:40.324Z,7.11
2018-01-31T04:45:40.434Z,7.1
2018-01-31T04:46:39.215Z,7.08
2018-01-31T04:47:40.616Z,7.06
2018-01-31T04:48:39.177Z,7.07
2018-01-31T04:49:39.174Z,7.07
2018-01-31T04:50:39.182Z,7.06
2018-01-31T04:51:38.894Z,7.05
2018-01-31T04:52:38.940Z,7.05
2018-01-31T04:53:38.846Z,7.05
2018-01-31T04:54:39.006Z,7.05
2018-01-31T04:55:39.001Z,7.05
2018-01-31T04:56:39.098Z,7.05
2018-01-31T04:57:39.049Z,7.05
2018-01-31T04:58:38.941Z,7.04
2018-01-31T04:59:39.032Z,7.04
2018-01-31T05:00:39.008Z,7.02
2018-01-31T05:01:39.092Z,7.02
2018-01-31T05:02:39.141Z,7.03
2018-01-31T05:03:38.943Z,7.04
2018-01-31T05:04:39.035Z,7.02
2018-01-31T05:05:39.060Z,7.03
2018-01-31T05:06:39.068Z,7.02
2018-01-31T05:07:38.952Z,7.01
2018-01-31T05:08:38.961Z,7.03
2018-01-31T05:09:39.102Z,7.02
2018-01-31T05:10:39.139Z,7.02
2018-01-31T05:11:38.909Z,7
2018-01-31T05:12:39.015Z,6.97
2018-01-31T05:13:38.979Z,7
2018-01-31T05:14:38.985Z,7
2018-01-31T05:15:39.059Z,7
2018-01-31T05:16:38.942Z,6.99
2018-01-31T05:17:39.209Z,6.99
2018-01-31T05:18:39.094Z,6.98
2018-01-31T05:19:39.131Z,6.99
2018-01-31T05:20:39.406Z,6.97
2018-01-31T05:21:38.997Z,6.99
2018-01-31T05:22:39.020Z,6.99
2018-01-31T05:23:39.656Z,6.95
2018-01-31T05:24:39.137Z,6.97
2018-01-31T05:25:39.008Z,6.97
2018-01-31T05:26:38.897Z,6.95
2018-01-31T05:27:38.995Z,6.92
2018-01-31T05:28:39.161Z,6.95
2018-01-31T05:29:39.122Z,6.94
2018-01-31T05:30:39.050Z,6.96
2018-01-31T05:31:39.087Z,6.97
2018-01-31T05:32:39.103Z,6.95
2018-01-31T05:33:39.196Z,6.96
2018-01-31T05:34:38.979Z,6.97
2018-01-31T05:35:39.119Z,6.96
2018-01-31T05:36:39.104Z,6.95
2018-01-31T05:37:39.184Z,6.95
2018-01-31T05:38:39.128Z,6.94
2018-01-31T05:39:39.215Z,6.93
2018-01-31T05:40:39.065Z,6.94
2018-01-31T05:41:39.090Z,6.88
2018-01-31T05:42:38.964Z,6.9
2018-01-31T05:43:39.207Z,6.86
2018-01-31T05:44:39.139Z,6.88
2018-01-31T05:45:39.076Z,6.87
2018-01-31T05:46:39.069Z,6.88
2018-01-31T05:47:38.961Z,6.85
2018-01-31T05:48:39.122Z,6.85
2018-01-31T05:49:38.955Z,6.84
2018-01-31T05:50:39.190Z,6.85
2018-01-31T05:51:38.984Z,6.84
2018-01-31T05:52:39.058Z,6.83
2018-01-31T05:53:39.127Z,6.84
2018-01-31T05:54:39.184Z,6.85
2018-01-31T05:55:39.148Z,6.84
2018-01-31T05:56:39.084Z,6.82
2018-01-31T05:57:38.998Z,6.85
2018-01-31T05:58:39.007Z,6.84
2018-01-31T05:59:39.216Z,6.86
2018-01-31T06:00:39.186Z,6.85
2018-01-31T06:01:39.139Z,6.85
2018-01-31T06:02:39.222Z,6.85
2018-01-31T06:03:39.088Z,6.84
2018-01-31T06:04:39.209Z,6.85
2018-01-31T06:05:39.140Z,6.83
2018-01-31T06:06:39.176Z,6.83
2018-01-31T06:07:39.184Z,6.82
2018-01-31T06:08:38.998Z,6.83
2018-01-31T06:09:39.289Z,6.81
2018-01-31T06:10:39.148Z,6.82
2018-01-31T06:11:39.196Z,6.81
2018-01-31T06:12:39.145Z,6.81
2018-01-31T06:13:39.199Z,6.78
2018-01-31T06:14:39.150Z,6.78
2018-01-31T06:15:39.087Z,6.78
2018-01-31T06:16:39.162Z,6.81
2018-01-31T06:17:39.184Z,6.81
2018-01-31T06:18:39.243Z,6.79
2018-01-31T06:19:39.036Z,6.81
2018-01-31T06:20:39.290Z,6.81
2018-01-31T06:21:39.153Z,6.81
2018-01-31T06:22:39.023Z,6.87
2018-01-31T06:23:39.100Z,6.84
2018-01-31T06:24:39.183Z,6.83
2018-01-31T06:25:39.247Z,6.83
2018-01-31T06:26:39.173Z,6.83
2018-01-31T06:27:39.067Z,6.85
2018-01-31T06:28:39.113Z,6.85
2018-01-31T06:29:39.269Z,6.84
2018-01-31T06:30:39.140Z,6.86
2018-01-31T06:31:39.029Z,6.86
2018-01-31T06:32:39.030Z,6.86
2018-01-31T06:33:39.113Z,6.85
2018-01-31T06:34:39.198Z,6.84
2018-01-31T06:35:39.171Z,6.85
2018-01-31T06:36:39.119Z,6.86
2018-01-31T06:37:39.187Z,6.85
2018-01-31T06:38:39.177Z,6.84
2018-01-31T06:39:39.334Z,6.81
2018-01-31T06:40:39.229Z,6.83
2018-01-31T06:41:39.758Z,6.84
2018-01-31T06:42:39.192Z,6.84
2018-01-31T06:43:39.193Z,6.86
2018-01-31T06:44:39.505Z,6.86
2018-01-31T06:45:39.254Z,6.85
2018-01-31T06:46:39.300Z,6.84
2018-01-31T06:47:39.151Z,6.86
2018-01-31T06:48:39.147Z,6.86
2018-01-31T06:49:39.302Z,6.85
2018-01-31T06:50:39.134Z,6.86
2018-01-31T06:51:39.142Z,6.85
2018-01-31T06:52:39.225Z,6.84
2018-01-31T06:53:39.106Z,6.84
2018-01-31T06:54:39.311Z,6.84
2018-01-31T06:55:39.157Z,6.85
2018-01-31T06:56:39.257Z,6.85
2018-01-31T06:57:39.063Z,6.83
2018-01-31T06:58:39.182Z,6.85
2018-01-31T06:59:39.333Z,6.86
2018-01-31T07:00:39.184Z,6.85
2018-01-31T07:01:39.124Z,6.84
2018-01-31T07:02:39.301Z,6.83
2018-01-31T07:03:39.134Z,6.84
2018-01-31T07:04:39.047Z,6.84
2018-01-31T07:05:39.469Z,6.85
2018-01-31T07:06:39.357Z,6.85
2018-01-31T07:07:39.951Z,6.86
2018-01-31T07:08:39.858Z,6.87
2018-01-31T07:09:39.798Z,6.86
2018-01-31T07:10:39.176Z,6.87
2018-01-31T07:11:39.183Z,6.86
2018-01-31T07:12:39.232Z,6.86
2018-01-31T07:13:39.523Z,6.87
2018-01-31T07:14:39.386Z,6.84
2018-01-31T07:15:39.281Z,6.86
2018-01-31T07:16:39.324Z,6.83
2018-01-31T07:17:39.277Z,6.86
2018-01-31T07:18:39.328Z,6.87
2018-01-31T07:19:39.417Z,6.87
2018-01-31T07:20:39.185Z,6.87
2018-01-31T07:21:39.279Z,6.86
2018-01-31T07:22:39.244Z,6.86
2018-01-31T07:23:39.109Z,6.89
2018-01-31T07:24:39.592Z,6.89
2018-01-31T07:25:39.175Z,6.88
2018-01-31T07:26:39.250Z,6.87
2018-01-31T07:27:39.814Z,6.87
2018-01-31T07:28:39.419Z,6.85
2018-01-31T07:29:39.859Z,6.88
2018-01-31T07:30:40.004Z,6.89
2018-01-31T07:31:39.110Z,6.86
2018-01-31T07:32:39.256Z,6.89
2018-01-31T07:33:39.241Z,6.88
2018-01-31T07:34:39.331Z,6.89
2018-01-31T07:35:39.357Z,6.89
2018-01-31T07:36:39.280Z,6.9
2018-01-31T07:37:39.191Z,6.91
2018-01-31T07:38:40.035Z,6.9
2018-01-31T07:39:39.180Z,6.89
2018-01-31T07:40:39.245Z,6.91
2018-01-31T07:41:39.307Z,6.9
2018-01-31T07:42:39.261Z,6.91
2018-01-31T07:43:39.457Z,6.9
2018-01-31T07:44:39.416Z,6.91
2018-01-31T07:45:39.279Z,6.91
2018-01-31T07:46:39.313Z,6.92
2018-01-31T07:47:39.411Z,6.92
2018-01-31T07:48:40.054Z,6.9
2018-01-31T07:49:39.331Z,6.91
2018-01-31T07:50:39.301Z,6.92
2018-01-31T07:51:39.295Z,6.92
2018-01-31T07:52:39.272Z,6.91
2018-01-31T07:53:39.276Z,6.92
2018-01-31T07:54:39.314Z,6.92
2018-01-31T07:55:39.292Z,6.94
2018-01-31T07:56:39.415Z,6.93
2018-01-31T07:57:39.245Z,6.93
2018-01-31T07:58:39.368Z,6.95
2018-01-31T07:59:39.426Z,6.93
2018-01-31T08:00:39.405Z,6.94
2018-01-31T08:01:40.299Z,6.95
2018-01-31T08:02:39.511Z,6.94
2018-01-31T08:03:39.365Z,6.94
2018-01-31T08:04:39.368Z,6.95
2018-01-31T08:05:39.398Z,6.95
2018-01-31T08:06:39.324Z,6.93
2018-01-31T08:07:39.216Z,6.94
2018-01-31T08:08:39.377Z,6.93
2018-01-31T08:09:39.205Z,6.9
2018-01-31T08:10:39.354Z,6.92
2018-01-31T08:11:39.391Z,6.91
2018-01-31T08:12:39.248Z,6.92
2018-01-31T08:13:39.542Z,6.94
2018-01-31T08:14:39.316Z,6.93
2018-01-31T08:15:38.363Z,6.92
2018-01-31T08:16:38.405Z,6.94
2018-01-31T08:17:38.472Z,6.93
2018-01-31T08:18:38.439Z,6.93
2018-01-31T08:19:38.549Z,6.93
2018-01-31T08:20:38.437Z,6.92
2018-01-31T08:21:38.315Z,6.92
2018-01-31T08:22:38.456Z,6.91
2018-01-31T08:23:38.401Z,6.93
2018-01-31T08:24:38.530Z,6.95
2018-01-31T08:25:38.376Z,6.92
2018-01-31T08:26:38.370Z,6.95
2018-01-31T08:27:39.146Z,6.96
2018-01-31T08:28:38.337Z,6.95
2018-01-31T08:29:38.437Z,6.91
2018-01-31T08:30:38.323Z,6.94
2018-01-31T08:31:38.443Z,6.98
2018-01-31T08:32:38.308Z,6.97
2018-01-31T08:33:38.468Z,6.98
2018-01-31T08:34:38.745Z,6.94
2018-01-31T08:35:38.399Z,6.97
2018-01-31T08:36:38.462Z,6.95
2018-01-31T08:37:38.366Z,6.95
2018-01-31T08:38:38.283Z,6.97
2018-01-31T08:39:38.723Z,6.94
2018-01-31T08:40:38.537Z,6.95
2018-01-31T08:41:38.421Z,6.92
2018-01-31T08:42:38.606Z,6.92
2018-01-31T08:43:38.510Z,6.95
2018-01-31T08:44:38.475Z,6.95
2018-01-31T08:45:38.830Z,6.95
2018-01-31T08:46:38.587Z,6.96
2018-01-31T08:47:38.756Z,6.98
2018-01-31T08:48:38.722Z,6.97
2018-01-31T08:49:38.687Z,6.98
2018-01-31T08:50:38.677Z,6.98
2018-01-31T08:51:38.759Z,6.98
2018-01-31T08:52:38.706Z,6.97
2018-01-31T08:53:38.807Z,6.98
2018-01-31T08:54:38.740Z,6.98
2018-01-31T08:55:38.735Z,6.96
2018-01-31T08:56:38.713Z,6.96
2018-01-31T08:57:39.115Z,6.98
2018-01-31T08:58:38.671Z,6.97
2018-01-31T08:59:38.700Z,6.96
2018-01-31T09:00:38.766Z,6.97
2018-01-31T09:01:38.707Z,6.97
2018-01-31T09:02:38.883Z,6.97
2018-01-31T09:03:38.749Z,6.94
2018-01-31T09:04:38.621Z,6.96
2018-01-31T09:05:38.615Z,6.98
2018-01-31T09:06:38.737Z,7
2018-01-31T09:07:38.892Z,7
2018-01-31T09:08:38.703Z,7.02
2018-01-31T09:09:38.583Z,6.97
2018-01-31T09:10:38.792Z,6.96
2018-01-31T09:11:38.657Z,7
2018-01-31T09:12:39.505Z,6.99
2018-01-31T09:13:38.739Z,6.99
2018-01-31T09:14:38.757Z,6.99
2018-01-31T09:15:38.864Z,7.01
2018-01-31T09:16:38.804Z,7.02
2018-01-31T09:17:38.807Z,7.04
2018-01-31T09:18:38.727Z,7.02
2018-01-31T09:19:38.816Z,7
2018-01-31T09:20:38.645Z,7.05
2018-01-31T09:21:39.137Z,7.03
2018-01-31T09:22:38.668Z,7
2018-01-31T09:23:38.728Z,7.01
2018-01-31T09:24:38.762Z,6.99
2018-01-31T09:25:38.795Z,7.05
2018-01-31T09:26:38.771Z,7.08
2018-01-31T09:27:38.885Z,7.04
2018-01-31T09:28:38.740Z,7.06
2018-01-31T09:29:38.748Z,7.01
2018-01-31T09:30:38.777Z,7.04
2018-01-31T09:31:38.795Z,7.04
2018-01-31T09:32:38.756Z,7.07
2018-01-31T09:33:38.696Z,7.04
2018-01-31T09:34:38.819Z,7.01
2018-01-31T09:35:38.762Z,7.06
2018-01-31T09:36:38.667Z,7.06
2018-01-31T09:37:38.881Z,7.08
2018-01-31T09:38:38.884Z,7.06
2018-01-31T09:39:38.698Z,7.04
2018-01-31T09:40:38.779Z,7.02
2018-01-31T09:41:38.896Z,7.05
2018-01-31T09:42:38.652Z,7.07
2018-01-31T09:43:38.742Z,7.02
2018-01-31T09:44:38.699Z,7.01
2018-01-31T09:45:39.088Z,7
2018-01-31T09:46:38.917Z,7.04
2018-01-31T09:47:38.779Z,7.05
2018-01-31T09:48:38.890Z,7.06
2018-01-31T09:49:38.773Z,7.1
2018-01-31T09:50:38.890Z,7.08
2018-01-31T09:51:38.663Z,7.07
2018-01-31T09:52:38.801Z,7.08
2018-01-31T09:53:38.713Z,7.04
2018-01-31T09:54:38.659Z,7.1
2018-01-31T09:55:39.108Z,7.13
2018-01-31T09:56:39.164Z,7.14
2018-01-31T09:57:38.869Z,7.13
2018-01-31T09:58:38.781Z,7.18
2018-01-31T09:59:39.542Z,7.18
2018-01-31T10:00:38.742Z,7.19
2018-01-31T10:01:39.170Z,7.21
2018-01-31T10:02:38.794Z,7.15
2018-01-31T10:03:38.783Z,7.19
2018-01-31T10:04:38.766Z,7.12
2018-01-31T10:05:38.711Z,7.09
2018-01-31T10:06:40.189Z,7.13
2018-01-31T10:07:38.688Z,7.17
2018-01-31T10:08:38.743Z,7.17
2018-01-31T10:09:38.801Z,7.15
2018-01-31T10:10:38.693Z,7.17
2018-01-31T10:11:38.827Z,7.15
2018-01-31T10:12:38.856Z,7.16
2018-01-31T10:13:38.856Z,7.18
2018-01-31T10:14:38.942Z,7.14
2018-01-31T10:15:38.919Z,7.15
2018-01-31T10:16:38.779Z,7.11
2018-01-31T10:17:38.717Z,7.14
2018-01-31T10:18:38.713Z,7.17
2018-01-31T10:19:39.099Z,7.17
2018-01-31T10:20:38.762Z,7.18
2018-01-31T10:21:38.845Z,7.19
2018-01-31T10:22:38.979Z,7.17
2018-01-31T10:23:39.000Z,7.17
2018-01-31T10:24:39.563Z,7.19
2018-01-31T10:25:38.811Z,7.19
2018-01-31T10:26:38.908Z,7.16
2018-01-31T10:27:38.994Z,7.19
2018-01-31T10:28:38.920Z,7.13
2018-01-31T10:29:39.278Z,7.16
2018-01-31T10:30:38.876Z,7.15
2018-01-31T10:31:38.816Z,7.11
2018-01-31T10:32:38.764Z,7.15
2018-01-31T10:33:38.816Z,7.16
2018-01-31T10:34:38.755Z,7.14
2018-01-31T10:35:38.819Z,7.1
2018-01-31T10:36:38.810Z,7.14
2018-01-31T10:37:39.062Z,7.1
2018-01-31T10:38:38.762Z,7.14
2018-01-31T10:39:38.977Z,7.15
2018-01-31T10:40:38.871Z,7.15
2018-01-31T10:41:38.927Z,7.13
2018-01-31T10:42:39.176Z,7.12
2018-01-31T10:43:39.176Z,7.09
2018-01-31T10:44:38.926Z,7.13
2018-01-31T10:45:39.003Z,7.08
2018-01-31T10:46:38.883Z,7.09
2018-01-31T10:47:38.918Z,7.09
2018-01-31T10:48:38.964Z,7.11
2018-01-31T10:49:39.030Z,7.13
2018-01-31T10:50:38.992Z,7.16
2018-01-31T10:51:38.842Z,7.16
2018-01-31T10:52:38.880Z,7.21
2018-01-31T10:57:38.996Z,7.27
2018-01-31T10:58:39.063Z,7.29
2018-01-31T10:59:39.174Z,7.29
2018-01-31T11:00:38.943Z,7.3
2018-01-31T11:01:38.931Z,7.24
2018-01-31T11:02:39.047Z,7.23
2018-01-31T11:03:39.090Z,7.25
2018-01-31T11:04:39.022Z,7.29
2018-01-31T11:05:39.013Z,7.32
2018-01-31T11:06:39.044Z,7.3
2018-01-31T11:07:39.067Z,7.29
2018-01-31T11:08:39.832Z,7.3
2018-01-31T11:09:39.082Z,7.23
2018-01-31T11:10:38.934Z,7.25
2018-01-31T11:11:39.128Z,7.22
2018-01-31T11:12:38.997Z,7.18
2018-01-31T11:13:39.060Z,7.24
2018-01-31T11:14:39.042Z,7.26
2018-01-31T11:15:39.368Z,7.21
2018-01-31T11:16:39.201Z,7.23
2018-01-31T11:17:39.433Z,7.22
2018-01-31T11:18:39.310Z,7.21
2018-01-31T11:19:39.264Z,7.24
2018-01-31T11:20:39.208Z,7.2
2018-01-31T11:21:39.161Z,7.17
2018-01-31T11:22:39.480Z,7.18
2018-01-31T11:23:39.176Z,7.15
2018-01-31T11:24:39.180Z,7.17
2018-01-31T11:25:39.167Z,7.17
2018-01-31T11:26:39.322Z,7.13
2018-01-31T11:27:39.424Z,7.14
2018-01-31T11:28:39.224Z,7.13
2018-01-31T11:29:39.524Z,7.16
2018-01-31T11:30:39.417Z,7.16
2018-01-31T11:31:39.275Z,7.21
2018-01-31T11:32:39.300Z,7.15
2018-01-31T11:33:39.329Z,7.11
2018-01-31T11:34:39.404Z,7.14
2018-01-31T11:35:39.275Z,7.11
2018-01-31T11:36:39.360Z,7.16
2018-01-31T11:37:39.185Z,7.18
2018-01-31T11:38:39.342Z,7.14
2018-01-31T11:39:39.274Z,7.11
2018-01-31T11:40:39.338Z,7.06
2018-01-31T11:41:39.315Z,7.09
2018-01-31T11:43:39.355Z,7.04
2018-01-31T11:44:39.296Z,7.05
2018-01-31T11:45:39.356Z,7.05
2018-01-31T11:46:39.237Z,7.02
2018-01-31T11:47:39.419Z,7.07
2018-01-31T11:48:39.368Z,7.06
2018-01-31T11:49:39.267Z,7.05
2018-01-31T11:50:39.240Z,7.08
2018-01-31T11:51:39.371Z,7.07
2018-01-31T11:52:39.574Z,6.98
2018-01-31T11:53:39.370Z,6.95
2018-01-31T11:54:39.400Z,7.02
2018-01-31T11:55:39.334Z,7.08
2018-01-31T11:56:39.429Z,7.07
2018-01-31T11:57:39.550Z,7.08
2018-01-31T11:58:39.309Z,7.1
2018-01-31T11:59:41.024Z,7.15
2018-01-31T12:00:39.342Z,7.16
2018-01-31T12:01:39.190Z,7.07
2018-01-31T12:02:39.224Z,7.07
2018-01-31T12:03:39.261Z,7.06
2018-01-31T12:04:39.404Z,6.98
2018-01-31T12:05:39.217Z,7.02
2018-01-31T12:06:39.191Z,7.11
2018-01-31T12:07:39.241Z,7.06
2018-01-31T12:08:39.403Z,7.1
2018-01-31T12:09:39.356Z,7.01
2018-01-31T12:10:39.256Z,6.99
2018-01-31T12:11:39.285Z,7.01
2018-01-31T12:12:39.344Z,7.01
2018-01-31T12:13:39.327Z,6.97
2018-01-31T12:14:39.346Z,6.95
2018-01-31T12:15:39.584Z,6.99
2018-01-31T12:16:38.645Z,6.95
2018-01-31T12:17:38.526Z,7
2018-01-31T12:18:38.482Z,6.98
2018-01-31T12:19:38.541Z,6.98
2018-01-31T12:20:38.478Z,6.95
2018-01-31T12:21:38.449Z,6.96
2018-01-31T12:22:38.410Z,6.97
2018-01-31T12:23:38.566Z,6.95
2018-01-31T12:24:38.659Z,6.98
2018-01-31T12:25:38.540Z,6.96
2018-01-31T12:26:38.517Z,6.99
2018-01-31T12:27:38.582Z,6.99
2018-01-31T12:28:38.577Z,7.02
2018-01-31T12:29:38.474Z,6.95
2018-01-31T12:30:38.505Z,6.96
2018-01-31T12:31:38.547Z,6.96
2018-01-31T12:32:39.104Z,6.99
2018-01-31T12:33:38.393Z,6.99
2018-01-31T12:34:38.525Z,6.97
2018-01-31T12:35:38.517Z,6.96
2018-01-31T12:36:38.360Z,6.96
2018-01-31T12:37:38.457Z,6.99
2018-01-31T12:38:38.529Z,6.94
2018-01-31T12:39:38.772Z,6.88
2018-01-31T12:40:38.429Z,6.88
2018-01-31T12:41:38.492Z,6.85
2018-01-31T12:42:38.457Z,6.92
2018-01-31T12:43:38.493Z,6.95
2018-01-31T12:44:38.793Z,6.92
2018-01-31T12:45:38.350Z,6.95
2018-01-31T12:46:38.718Z,6.96
2018-01-31T12:47:38.661Z,6.93
2018-01-31T12:48:38.518Z,6.94
2018-01-31T12:49:38.467Z,6.94
2018-01-31T12:50:38.616Z,6.92
2018-01-31T12:51:38.596Z,6.89
2018-01-31T12:52:38.631Z,6.93
2018-01-31T12:53:38.765Z,6.95
2018-01-31T12:54:38.688Z,6.93
2018-01-31T12:55:38.572Z,6.96
2018-01-31T12:56:38.570Z,6.96
2018-01-31T12:57:38.720Z,6.91
2018-01-31T12:58:38.890Z,6.91
2018-01-31T12:59:38.629Z,6.88
2018-01-31T13:00:38.580Z,6.94
2018-01-31T13:01:38.678Z,6.91
2018-01-31T13:02:38.682Z,6.93
2018-01-31T13:03:38.722Z,6.9
2018-01-31T13:04:38.676Z,6.94
2018-01-31T13:05:38.789Z,6.88
2018-01-31T13:06:38.500Z,6.91
2018-01-31T13:07:38.496Z,6.88
2018-01-31T13:08:38.822Z,6.91
2018-01-31T13:09:38.614Z,6.95
2018-01-31T13:10:38.694Z,6.92
2018-01-31T13:11:38.557Z,6.88
2018-01-31T13:12:38.485Z,6.9
2018-01-31T13:13:38.533Z,6.94
2018-01-31T13:14:38.674Z,6.89
2018-01-31T13:15:38.532Z,6.9
2018-01-31T13:16:38.956Z,6.9
2018-01-31T13:17:38.990Z,6.92
2018-01-31T13:18:39.148Z,6.89
2018-01-31T13:19:39.374Z,6.86
2018-01-31T13:20:39.035Z,6.82
2018-01-31T13:21:39.000Z,6.84
2018-01-31T13:22:38.970Z,6.88
2018-01-31T13:23:38.931Z,6.83
2018-01-31T13:24:39.358Z,6.81
2018-01-31T13:25:40.198Z,6.82
2018-01-31T13:26:39.238Z,6.84
2018-01-31T13:27:39.096Z,6.85
2018-01-31T13:28:39.058Z,6.84
2018-01-31T13:29:38.943Z,6.84
2018-01-31T13:30:39.921Z,6.84
2018-01-31T13:31:39.040Z,6.9
2018-01-31T13:32:39.064Z,6.82
2018-01-31T13:33:39.157Z,6.83
2018-01-31T13:34:38.964Z,6.84
2018-01-31T13:35:38.986Z,6.79
2018-01-31T13:36:38.899Z,6.82
2018-01-31T13:37:39.059Z,6.79
2018-01-31T13:38:38.945Z,6.84
2018-01-31T13:39:38.872Z,6.86
2018-01-31T13:40:39.013Z,6.88
2018-01-31T13:41:39.012Z,6.84
2018-01-31T13:42:39.190Z,6.85
2018-01-31T13:43:39.158Z,6.77
2018-01-31T13:44:39.012Z,6.75
2018-01-31T13:45:38.984Z,6.79
2018-01-31T13:46:39.165Z,6.77
2018-01-31T13:47:39.158Z,6.78
2018-01-31T13:48:39.177Z,6.74
2018-01-31T13:49:39.173Z,6.75
2018-01-31T13:50:39.181Z,6.76
2018-01-31T13:51:39.102Z,6.74
2018-01-31T13:52:39.148Z,6.78
2018-01-31T13:53:39.150Z,6.74
2018-01-31T13:54:39.042Z,6.7
2018-01-31T13:55:39.232Z,6.75
2018-01-31T13:56:38.951Z,6.72
2018-01-31T13:57:39.230Z,6.68
2018-01-31T13:58:38.986Z,6.71
2018-01-31T13:59:39.152Z,6.76
2018-01-31T14:00:38.989Z,6.81
2018-01-31T14:01:39.003Z,6.8
2018-01-31T14:02:38.968Z,6.76
2018-01-31T14:03:39.135Z,6.76
2018-01-31T14:04:39.311Z,6.69
2018-01-31T14:05:39.086Z,6.71
2018-01-31T14:06:38.988Z,6.71
2018-01-31T14:07:39.050Z,6.75
2018-01-31T14:08:39.137Z,6.75
2018-01-31T14:09:38.904Z,6.76
2018-01-31T14:10:39.047Z,6.79
2018-01-31T14:11:39.101Z,6.79
2018-01-31T14:12:39.153Z,6.8
2018-01-31T14:13:38.978Z,6.77
2018-01-31T14:14:39.293Z,6.71
2018-01-31T14:15:39.201Z,6.74
2018-01-31T14:16:39.224Z,6.75
2018-01-31T14:17:39.162Z,6.75
2018-01-31T14:18:39.138Z,6.73
2018-01-31T14:19:39.247Z,6.74
2018-01-31T14:20:40.930Z,6.75
2018-01-31T14:21:40.324Z,6.72
2018-01-31T14:22:40.479Z,6.75
2018-01-31T14:23:40.803Z,6.77
2018-01-31T14:24:49.728Z,6.74
2018-01-31T14:25:42.039Z,6.72
2018-01-31T14:26:41.379Z,6.73
2018-01-31T14:27:39.055Z,6.77
2018-01-31T14:28:39.058Z,6.78
2018-01-31T14:29:39.196Z,6.82
2018-01-31T14:30:39.153Z,6.78
2018-01-31T14:31:39.309Z,6.77
2018-01-31T14:32:39.173Z,6.79
2018-01-31T14:33:39.150Z,6.77
2018-01-31T14:34:39.120Z,6.8
2018-01-31T14:35:39.219Z,6.82
2018-01-31T14:36:39.701Z,6.85
2018-01-31T14:37:42.407Z,6.79
2018-01-31T14:38:39.203Z,6.81
2018-01-31T14:39:39.258Z,6.79
2018-01-31T14:40:39.147Z,6.81
2018-01-31T14:41:39.236Z,6.82
2018-01-31T14:42:39.121Z,6.79
2018-01-31T14:43:39.057Z,6.8
2018-01-31T14:44:39.097Z,6.8
2018-01-31T14:45:39.132Z,6.83
2018-01-31T14:46:40.319Z,6.84
2018-01-31T14:47:39.396Z,6.8
2018-01-31T14:48:39.276Z,6.82
2018-01-31T14:49:40.031Z,6.81
2018-01-31T14:50:39.374Z,6.81
2018-01-31T14:51:39.454Z,6.81
2018-01-31T14:52:39.191Z,6.79
2018-01-31T14:53:39.522Z,6.8
2018-01-31T14:54:39.388Z,6.81
2018-01-31T14:55:39.530Z,6.82
2018-01-31T14:56:39.444Z,6.82
2018-01-31T14:57:39.357Z,6.84
2018-01-31T14:58:39.398Z,6.87
2018-01-31T14:59:39.276Z,6.85
2018-01-31T15:00:39.368Z,6.84
2018-01-31T15:01:39.344Z,6.86
2018-01-31T15:02:39.287Z,6.84
2018-01-31T15:03:39.257Z,6.85
2018-01-31T15:04:39.531Z,6.84
2018-01-31T15:05:39.475Z,6.85
2018-01-31T15:06:39.546Z,6.84
2018-01-31T15:07:39.304Z,6.86
2018-01-31T15:08:40.416Z,6.85
2018-01-31T15:09:39.245Z,6.86
2018-01-31T15:10:39.285Z,6.85
2018-01-31T15:11:39.822Z,6.84
2018-01-31T15:12:39.336Z,6.85
2018-01-31T15:13:39.250Z,6.87
2018-01-31T15:14:39.290Z,6.85
2018-01-31T15:15:39.409Z,6.86
2018-01-31T15:16:39.466Z,6.86
2018-01-31T15:17:38.433Z,6.87
2018-01-31T15:18:38.289Z,6.9